O John Clark Restricted Landing Area [CLOSED]

Jump to: basic info | weather | comments

Related pages: nearby airports | nearby navaids | notams | map

Basic information (top)

Codes: 7IL2
Location: lon 42.368401, lat -87.991699, elev 790 ft / 241 m msl
Status: closed

Weather (top)

Current conditions for Waukegan Regional Airport 6nm (12km) ENE (rec'd 2014/11/28 15:55Z):

KUGN 281555Z 17010KT 10SM FEW048 BKN080 BKN110 M06/M11 A3020 RMK AO2 SLP250 T10611111

Airport forecast for Kenosha Regional Airport 14nm (26km) NNE (rec'd 2014/11/28 12:42Z):

TAF KENW 281140Z 2812/2912 14004KT P6SM OVC080 
     FM281300 18005KT P6SM -SN BKN060 
     FM281500 18009KT P6SM BKN040 
     FM290100 18008KT P6SM OVC020 
     FM291000 19007KT P6SM OVC010

Latest comments (top)

No comments yet for O John Clark Restricted Landing Area

More... (top)

See also NOTAMs and nearby airports and navaids, or visit the O John Clark Restricted Landing Area page at the main OurAirports website..